sensor_id;sensor_type;location;lat;lon;timestamp;pressure;altitude;pressure_sealevel;temperature;humidity
56604;BME280;42486;47.478;19.036;2023-05-24T00:02:50;99966.72;;;16.99;100.00
56604;BME280;42486;47.478;19.036;2023-05-24T00:05:55;99953.53;;;17.07;100.00
56604;BME280;42486;47.478;19.036;2023-05-24T00:09:07;99952.88;;;17.05;100.00
56604;BME280;42486;47.478;19.036;2023-05-24T00:12:12;99936.38;;;17.11;100.00
56604;BME280;42486;47.478;19.036;2023-05-24T00:15:21;99935.91;;;17.08;100.00
56604;BME280;42486;47.478;19.036;2023-05-24T00:18:26;99938.03;;;17.04;100.00
56604;BME280;42486;47.478;19.036;2023-05-24T00:21:30;99948.09;;;17.09;100.00
56604;BME280;42486;47.478;19.036;2023-05-24T00:24:37;99933.75;;;17.03;100.00
56604;BME280;42486;47.478;19.036;2023-05-24T00:27:41;99947.91;;;16.94;100.00
56604;BME280;42486;47.478;19.036;2023-05-24T00:30:48;99939.69;;;16.97;100.00
56604;BME280;42486;47.478;19.036;2023-05-24T00:33:57;99946.13;;;16.94;100.00
56604;BME280;42486;47.478;19.036;2023-05-24T00:37:08;99930.91;;;16.80;100.00
56604;BME280;42486;47.478;19.036;2023-05-24T00:40:18;99922.47;;;16.60;100.00
56604;BME280;42486;47.478;19.036;2023-05-24T00:43:25;99923.09;;;16.54;100.00
56604;BME280;42486;47.478;19.036;2023-05-24T00:46:31;99933.00;;;16.52;100.00
56604;BME280;42486;47.478;19.036;2023-05-24T00:49:37;99932.34;;;16.50;100.00
56604;BME280;42486;47.478;19.036;2023-05-24T00:52:43;99928.53;;;16.44;100.00
56604;BME280;42486;47.478;19.036;2023-05-24T00:56:03;99930.69;;;16.49;100.00
56604;BME280;42486;47.478;19.036;2023-05-24T00:59:12;99930.19;;;16.54;100.00
56604;BME280;42486;47.478;19.036;2023-05-24T01:02:25;99932.00;;;16.53;100.00
56604;BME280;42486;47.478;19.036;2023-05-24T01:05:29;99928.38;;;16.54;100.00
56604;BME280;42486;47.478;19.036;2023-05-24T01:18:10;99931.06;;;16.62;100.00
56604;BME280;42486;47.478;19.036;2023-05-24T01:21:22;99935.00;;;16.66;100.00
56604;BME280;42486;47.478;19.036;2023-05-24T01:24:31;99935.19;;;16.65;100.00
56604;BME280;42486;47.478;19.036;2023-05-24T01:27:46;99921.84;;;16.83;100.00
56604;BME280;42486;47.478;19.036;2023-05-24T01:30:51;99925.81;;;16.87;100.00
56604;BME280;42486;47.478;19.036;2023-05-24T01:33:54;99928.47;;;16.95;100.00
56604;BME280;42486;47.478;19.036;2023-05-24T01:37:03;99933.25;;;16.91;100.00
56604;BME280;42486;47.478;19.036;2023-05-24T01:40:13;99924.16;;;16.78;100.00
56604;BME280;42486;47.478;19.036;2023-05-24T01:46:40;99914.56;;;16.68;100.00
56604;BME280;42486;47.478;19.036;2023-05-24T01:49:48;99909.09;;;16.62;100.00
56604;BME280;42486;47.478;19.036;2023-05-24T01:52:57;99907.13;;;16.64;100.00
56604;BME280;42486;47.478;19.036;2023-05-24T01:56:04;99903.19;;;16.60;100.00
56604;BME280;42486;47.478;19.036;2023-05-24T01:59:09;99910.78;;;16.63;100.00
56604;BME280;42486;47.478;19.036;2023-05-24T02:02:15;99911.25;;;16.66;100.00
56604;BME280;42486;47.478;19.036;2023-05-24T02:05:24;99910.91;;;16.61;100.00
56604;BME280;42486;47.478;19.036;2023-05-24T02:08:27;99915.53;;;16.59;100.00
56604;BME280;42486;47.478;19.036;2023-05-24T02:11:41;99911.91;;;16.60;100.00
56604;BME280;42486;47.478;19.036;2023-05-24T02:14:48;99926.94;;;16.60;100.00
56604;BME280;42486;47.478;19.036;2023-05-24T02:17:55;99910.91;;;16.61;100.00
56604;BME280;42486;47.478;19.036;2023-05-24T02:21:04;99918.47;;;16.48;100.00
56604;BME280;42486;47.478;19.036;2023-05-24T02:24:10;99913.88;;;16.42;100.00
56604;BME280;42486;47.478;19.036;2023-05-24T02:27:17;99914.34;;;16.37;100.00
56604;BME280;42486;47.478;19.036;2023-05-24T02:30:22;99916.78;;;16.22;100.00
56604;BME280;42486;47.478;19.036;2023-05-24T02:33:25;99913.12;;;16.15;100.00
56604;BME280;42486;47.478;19.036;2023-05-24T02:36:39;99918.22;;;16.17;100.00
56604;BME280;42486;47.478;19.036;2023-05-24T02:39:42;99906.84;;;16.08;100.00
56604;BME280;42486;47.478;19.036;2023-05-24T02:42:51;99914.41;;;16.03;100.00
56604;BME280;42486;47.478;19.036;2023-05-24T02:45:53;99909.94;;;16.03;100.00
56604;BME280;42486;47.478;19.036;2023-05-24T02:48:57;99903.84;;;16.03;100.00
56604;BME280;42486;47.478;19.036;2023-05-24T02:52:06;99906.62;;;15.93;100.00
56604;BME280;42486;47.478;19.036;2023-05-24T02:55:09;99912.38;;;15.89;100.00
56604;BME280;42486;47.478;19.036;2023-05-24T02:58:17;99902.16;;;15.85;100.00
56604;BME280;42486;47.478;19.036;2023-05-24T03:01:21;99911.34;;;15.81;100.00
56604;BME280;42486;47.478;19.036;2023-05-24T03:04:26;99907.22;;;15.79;100.00
56604;BME280;42486;47.478;19.036;2023-05-24T03:07:35;99909.16;;;15.77;100.00
56604;BME280;42486;47.478;19.036;2023-05-24T03:10:41;99927.28;;;15.72;100.00
56604;BME280;42486;47.478;19.036;2023-05-24T03:13:46;99926.59;;;15.70;100.00
56604;BME280;42486;47.478;19.036;2023-05-24T03:16:50;99925.78;;;15.69;100.00
56604;BME280;42486;47.478;19.036;2023-05-24T03:19:54;99927.19;;;15.63;100.00
56604;BME280;42486;47.478;19.036;2023-05-24T03:23:00;99928.03;;;15.64;100.00
56604;BME280;42486;47.478;19.036;2023-05-24T03:26:05;99923.41;;;15.66;100.00
56604;BME280;42486;47.478;19.036;2023-05-24T03:29:09;99923.41;;;15.66;100.00
56604;BME280;42486;47.478;19.036;2023-05-24T03:32:15;99920.28;;;15.62;100.00
56604;BME280;42486;47.478;19.036;2023-05-24T03:35:17;99926.53;;;15.61;100.00
56604;BME280;42486;47.478;19.036;2023-05-24T03:38:20;99926.44;;;15.71;100.00
56604;BME280;42486;47.478;19.036;2023-05-24T03:41:29;99934.19;;;15.73;100.00
56604;BME280;42486;47.478;19.036;2023-05-24T03:44:32;99934.91;;;15.83;100.00
56604;BME280;42486;47.478;19.036;2023-05-24T03:47:38;99923.25;;;15.94;100.00
56604;BME280;42486;47.478;19.036;2023-05-24T03:50:49;99926.91;;;16.01;100.00
56604;BME280;42486;47.478;19.036;2023-05-24T03:53:59;99934.34;;;16.05;100.00
56604;BME280;42486;47.478;19.036;2023-05-24T03:57:05;99937.78;;;16.06;100.00
56604;BME280;42486;47.478;19.036;2023-05-24T04:00:11;99945.91;;;16.13;100.00
56604;BME280;42486;47.478;19.036;2023-05-24T04:03:21;99956.47;;;16.21;100.00
56604;BME280;42486;47.478;19.036;2023-05-24T04:06:24;99950.06;;;16.23;100.00
56604;BME280;42486;47.478;19.036;2023-05-24T04:09:33;99950.09;;;16.32;100.00
56604;BME280;42486;47.478;19.036;2023-05-24T04:12:39;99954.09;;;16.44;100.00
56604;BME280;42486;47.478;19.036;2023-05-24T04:15:48;99950.00;;;16.58;100.00
56604;BME280;42486;47.478;19.036;2023-05-24T04:18:50;99963.00;;;16.67;100.00
56604;BME280;42486;47.478;19.036;2023-05-24T04:21:56;99962.91;;;16.77;100.00
56604;BME280;42486;47.478;19.036;2023-05-24T04:25:04;99959.31;;;16.86;100.00
56604;BME280;42486;47.478;19.036;2023-05-24T04:28:11;99961.78;;;16.88;100.00
56604;BME280;42486;47.478;19.036;2023-05-24T04:31:14;99970.69;;;16.79;100.00
56604;BME280;42486;47.478;19.036;2023-05-24T04:34:20;99975.63;;;16.90;100.00
56604;BME280;42486;47.478;19.036;2023-05-24T04:37:23;99974.00;;;16.97;100.00
56604;BME280;42486;47.478;19.036;2023-05-24T04:40:31;99972.34;;;16.96;100.00
56604;BME280;42486;47.478;19.036;2023-05-24T04:43:41;99973.50;;;17.10;100.00
56604;BME280;42486;47.478;19.036;2023-05-24T04:46:46;99972.50;;;17.19;100.00
56604;BME280;42486;47.478;19.036;2023-05-24T04:49:51;99969.06;;;17.27;100.00
56604;BME280;42486;47.478;19.036;2023-05-24T04:53:01;99973.34;;;17.28;100.00
56604;BME280;42486;47.478;19.036;2023-05-24T04:56:10;99969.69;;;17.04;100.00
56604;BME280;42486;47.478;19.036;2023-05-24T04:59:16;99971.37;;;17.05;100.00
56604;BME280;42486;47.478;19.036;2023-05-24T05:02:18;99975.81;;;17.13;100.00
56604;BME280;42486;47.478;19.036;2023-05-24T05:05:28;99974.81;;;17.30;100.00
56604;BME280;42486;47.478;19.036;2023-05-24T05:08:32;99981.25;;;17.44;100.00
56604;BME280;42486;47.478;19.036;2023-05-24T05:11:36;99998.06;;;18.32;100.00
56604;BME280;42486;47.478;19.036;2023-05-24T05:14:40;100002.38;;;19.18;100.00
56604;BME280;42486;47.478;19.036;2023-05-24T05:17:46;100005.94;;;19.25;100.00
56604;BME280;42486;47.478;19.036;2023-05-24T05:20:52;100000.19;;;19.59;100.00
56604;BME280;42486;47.478;19.036;2023-05-24T05:23:56;99996.72;;;18.98;100.00
56604;BME280;42486;47.478;19.036;2023-05-24T05:27:01;99997.41;;;18.38;100.00
56604;BME280;42486;47.478;19.036;2023-05-24T05:30:10;99995.75;;;18.29;100.00
56604;BME280;42486;47.478;19.036;2023-05-24T05:33:17;99998.06;;;18.32;100.00
56604;BME280;42486;47.478;19.036;2023-05-24T05:36:24;100001.16;;;19.29;100.00
56604;BME280;42486;47.478;19.036;2023-05-24T05:39:28;100000.00;;;19.84;96.39
56604;BME280;42486;47.478;19.036;2023-05-24T05:42:33;100004.31;;;19.24;100.00
56604;BME280;42486;47.478;19.036;2023-05-24T05:45:35;100006.28;;;19.07;100.00
56604;BME280;42486;47.478;19.036;2023-05-24T05:48:39;100003.69;;;18.68;100.00
56604;BME280;42486;47.478;19.036;2023-05-24T05:51:47;100005.66;;;18.66;100.00
56604;BME280;42486;47.478;19.036;2023-05-24T05:54:53;100010.81;;;18.67;100.00
56604;BME280;42486;47.478;19.036;2023-05-24T05:57:57;100013.78;;;18.96;100.00
56604;BME280;42486;47.478;19.036;2023-05-24T06:01:02;100014.69;;;19.11;100.00
56604;BME280;42486;47.478;19.036;2023-05-24T06:04:08;100007.63;;;19.03;100.00
56604;BME280;42486;47.478;19.036;2023-05-24T06:07:12;100018.56;;;19.00;100.00
56604;BME280;42486;47.478;19.036;2023-05-24T06:10:18;100024.03;;;18.99;100.00
56604;BME280;42486;47.478;19.036;2023-05-24T06:13:22;100025.75;;;19.14;100.00
56604;BME280;42486;47.478;19.036;2023-05-24T06:16:25;100018.81;;;19.13;99.50
56604;BME280;42486;47.478;19.036;2023-05-24T06:19:28;100028.44;;;18.83;99.10
56604;BME280;42486;47.478;19.036;2023-05-24T06:22:32;100027.50;;;18.68;100.00
56604;BME280;42486;47.478;19.036;2023-05-24T06:25:40;100020.75;;;18.97;99.75
56604;BME280;42486;47.478;19.036;2023-05-24T06:28:47;100034.84;;;19.12;98.05
56604;BME280;42486;47.478;19.036;2023-05-24T06:31:50;100031.66;;;19.02;98.72
56604;BME280;42486;47.478;19.036;2023-05-24T06:34:54;100033.94;;;19.05;97.96
56604;BME280;42486;47.478;19.036;2023-05-24T06:38:04;100036.13;;;18.93;99.77
56604;BME280;42486;47.478;19.036;2023-05-24T06:41:07;100038.34;;;19.12;98.91
56604;BME280;42486;47.478;19.036;2023-05-24T06:44:14;100034.81;;;19.20;97.49
56604;BME280;42486;47.478;19.036;2023-05-24T06:47:25;100044.75;;;19.18;98.34
56604;BME280;42486;47.478;19.036;2023-05-24T06:50:33;100041.84;;;19.51;95.11
56604;BME280;42486;47.478;19.036;2023-05-24T06:53:37;100052.00;;;19.47;97.52
56604;BME280;42486;47.478;19.036;2023-05-24T06:56:44;100053.25;;;19.36;95.68
56604;BME280;42486;47.478;19.036;2023-05-24T06:59:47;100062.78;;;19.84;93.05
56604;BME280;42486;47.478;19.036;2023-05-24T07:02:52;100061.81;;;19.99;91.36
56604;BME280;42486;47.478;19.036;2023-05-24T07:05:56;100068.09;;;19.84;92.12
56604;BME280;42486;47.478;19.036;2023-05-24T07:08:59;100076.81;;;20.52;87.47
56604;BME280;42486;47.478;19.036;2023-05-24T07:12:06;100075.75;;;20.97;84.98
56604;BME280;42486;47.478;19.036;2023-05-24T07:15:10;100082.81;;;21.05;83.61
56604;BME280;42486;47.478;19.036;2023-05-24T07:18:12;100085.44;;;21.20;83.40
56604;BME280;42486;47.478;19.036;2023-05-24T07:21:15;100075.00;;;21.61;80.94
56604;BME280;42486;47.478;19.036;2023-05-24T07:24:18;100085.69;;;22.65;76.43
56604;BME280;42486;47.478;19.036;2023-05-24T07:27:23;100094.19;;;25.27;64.89
56604;BME280;42486;47.478;19.036;2023-05-24T07:30:27;100110.63;;;27.35;55.17
56604;BME280;42486;47.478;19.036;2023-05-24T07:33:36;100118.06;;;27.86;51.29
56604;BME280;42486;47.478;19.036;2023-05-24T07:36:39;100121.97;;;29.35;48.13
56604;BME280;42486;47.478;19.036;2023-05-24T07:39:44;100125.03;;;30.06;44.89
56604;BME280;42486;47.478;19.036;2023-05-24T07:42:47;100127.56;;;29.96;45.16
56604;BME280;42486;47.478;19.036;2023-05-24T07:45:49;100123.56;;;28.39;47.71
56604;BME280;42486;47.478;19.036;2023-05-24T07:48:52;100122.53;;;28.80;47.58
56604;BME280;42486;47.478;19.036;2023-05-24T07:51:54;100131.38;;;30.34;44.61
56604;BME280;42486;47.478;19.036;2023-05-24T07:55:02;100126.91;;;27.21;50.09
56604;BME280;42486;47.478;19.036;2023-05-24T07:58:04;100127.19;;;25.01;58.37
56604;BME280;42486;47.478;19.036;2023-05-24T08:01:08;100114.47;;;24.96;58.99
56604;BME280;42486;47.478;19.036;2023-05-24T08:04:12;100127.31;;;26.51;55.66
56604;BME280;42486;47.478;19.036;2023-05-24T08:07:15;100125.31;;;26.47;54.63
56604;BME280;42486;47.478;19.036;2023-05-24T08:10:19;100124.28;;;24.64;60.41
56604;BME280;42486;47.478;19.036;2023-05-24T08:13:21;100129.22;;;23.34;65.34
56604;BME280;42486;47.478;19.036;2023-05-24T08:16:26;100126.75;;;23.39;66.73
56604;BME280;42486;47.478;19.036;2023-05-24T08:19:30;100117.66;;;22.65;68.33
56604;BME280;42486;47.478;19.036;2023-05-24T08:22:38;100116.94;;;23.46;67.95
56604;BME280;42486;47.478;19.036;2023-05-24T08:25:44;100135.41;;;24.34;62.69
56604;BME280;42486;47.478;19.036;2023-05-24T08:28:47;100132.81;;;25.95;56.80
56604;BME280;42486;47.478;19.036;2023-05-24T08:31:50;100136.13;;;26.15;55.82
56604;BME280;42486;47.478;19.036;2023-05-24T08:34:54;100137.38;;;25.87;56.28
56604;BME280;42486;47.478;19.036;2023-05-24T08:38:19;100140.94;;;25.11;59.72
56604;BME280;42486;47.478;19.036;2023-05-24T08:41:21;100138.72;;;24.03;63.63
56604;BME280;42486;47.478;19.036;2023-05-24T08:44:25;100145.13;;;23.07;65.97
56604;BME280;42486;47.478;19.036;2023-05-24T08:47:30;100143.84;;;22.97;69.58
56604;BME280;42486;47.478;19.036;2023-05-24T08:50:36;100141.87;;;22.71;68.70
56604;BME280;42486;47.478;19.036;2023-05-24T08:53:39;100158.00;;;22.62;69.22
56604;BME280;42486;47.478;19.036;2023-05-24T08:56:44;100163.41;;;22.13;70.29
56604;BME280;42486;47.478;19.036;2023-05-24T08:59:49;100162.50;;;22.27;69.53
56604;BME280;42486;47.478;19.036;2023-05-24T09:02:53;100156.41;;;21.62;71.58
56604;BME280;42486;47.478;19.036;2023-05-24T09:05:59;100154.81;;;21.89;70.12
56604;BME280;42486;47.478;19.036;2023-05-24T09:09:05;100155.41;;;22.41;68.58
56604;BME280;42486;47.478;19.036;2023-05-24T09:12:10;100162.34;;;22.63;67.97
56604;BME280;42486;47.478;19.036;2023-05-24T09:15:29;100168.78;;;22.82;67.50
56604;BME280;42486;47.478;19.036;2023-05-24T09:18:31;100169.84;;;22.53;66.66
56604;BME280;42486;47.478;19.036;2023-05-24T09:21:34;100164.22;;;22.41;67.58
56604;BME280;42486;47.478;19.036;2023-05-24T09:24:41;100161.47;;;22.28;67.44
56604;BME280;42486;47.478;19.036;2023-05-24T09:27:51;100164.28;;;22.83;67.61
56604;BME280;42486;47.478;19.036;2023-05-24T09:30:57;100159.81;;;22.90;66.92
56604;BME280;42486;47.478;19.036;2023-05-24T09:34:00;100155.59;;;23.16;65.36
56604;BME280;42486;47.478;19.036;2023-05-24T09:37:05;100160.19;;;23.35;63.70
56604;BME280;42486;47.478;19.036;2023-05-24T09:40:18;100156.06;;;23.26;61.83
56604;BME280;42486;47.478;19.036;2023-05-24T09:43:26;100163.16;;;23.05;63.19
56604;BME280;42486;47.478;19.036;2023-05-24T09:46:35;100160.03;;;23.57;62.92
56604;BME280;42486;47.478;19.036;2023-05-24T09:49:40;100161.06;;;23.62;62.42
56604;BME280;42486;47.478;19.036;2023-05-24T09:52:44;100153.75;;;23.91;61.23
56604;BME280;42486;47.478;19.036;2023-05-24T09:55:52;100150.19;;;23.57;62.22
56604;BME280;42486;47.478;19.036;2023-05-24T09:58:56;100158.53;;;23.34;63.83
56604;BME280;42486;47.478;19.036;2023-05-24T10:02:06;100158.34;;;23.36;63.70
56604;BME280;42486;47.478;19.036;2023-05-24T10:05:11;100163.47;;;23.30;63.29
56604;BME280;42486;47.478;19.036;2023-05-24T10:08:15;100165.63;;;23.75;60.76
56604;BME280;42486;47.478;19.036;2023-05-24T10:11:20;100161.53;;;24.12;61.07
56604;BME280;42486;47.478;19.036;2023-05-24T10:14:23;100160.69;;;24.18;59.26
56604;BME280;42486;47.478;19.036;2023-05-24T10:17:29;100158.66;;;24.07;57.90
56604;BME280;42486;47.478;19.036;2023-05-24T10:20:32;100155.53;;;24.37;58.78
56604;BME280;42486;47.478;19.036;2023-05-24T10:23:39;100157.34;;;24.70;58.67
56604;BME280;42486;47.478;19.036;2023-05-24T10:26:46;100147.03;;;24.80;58.97
56604;BME280;42486;47.478;19.036;2023-05-24T10:30:03;100155.37;;;25.03;56.47
56604;BME280;42486;47.478;19.036;2023-05-24T10:33:14;100165.66;;;25.00;56.33
56604;BME280;42486;47.478;19.036;2023-05-24T10:36:23;100150.84;;;25.04;56.81
56604;BME280;42486;47.478;19.036;2023-05-24T10:39:27;100148.09;;;25.24;54.78
56604;BME280;42486;47.478;19.036;2023-05-24T10:42:32;100155.72;;;25.59;54.02
56604;BME280;42486;47.478;19.036;2023-05-24T10:45:36;100167.41;;;25.64;53.85
56604;BME280;42486;47.478;19.036;2023-05-24T10:48:43;100156.47;;;24.76;55.77
56604;BME280;42486;47.478;19.036;2023-05-24T10:51:47;100151.34;;;25.33;54.02
56604;BME280;42486;47.478;19.036;2023-05-24T10:55:01;100147.72;;;25.84;53.27
56604;BME280;42486;47.478;19.036;2023-05-24T10:58:06;100138.94;;;26.02;53.85
56604;BME280;42486;47.478;19.036;2023-05-24T11:01:13;100141.78;;;25.75;53.33
56604;BME280;42486;47.478;19.036;2023-05-24T11:04:25;100141.00;;;25.68;55.32
56604;BME280;42486;47.478;19.036;2023-05-24T11:07:30;100153.03;;;25.59;53.77
56604;BME280;42486;47.478;19.036;2023-05-24T11:10:38;100140.22;;;25.36;51.69
56604;BME280;42486;47.478;19.036;2023-05-24T11:13:46;100149.59;;;25.00;54.04
56604;BME280;42486;47.478;19.036;2023-05-24T11:16:50;100152.78;;;25.29;55.20
56604;BME280;42486;47.478;19.036;2023-05-24T11:19:53;100139.03;;;25.88;55.21
56604;BME280;42486;47.478;19.036;2023-05-24T11:23:04;100145.00;;;25.27;54.04
56604;BME280;42486;47.478;19.036;2023-05-24T11:26:13;100137.25;;;24.60;55.02
56604;BME280;42486;47.478;19.036;2023-05-24T11:29:17;100134.53;;;25.12;56.80
56604;BME280;42486;47.478;19.036;2023-05-24T11:32:23;100123.09;;;25.68;52.92
56604;BME280;42486;47.478;19.036;2023-05-24T11:35:26;100130.28;;;25.43;53.32
56604;BME280;42486;47.478;19.036;2023-05-24T11:38:31;100133.78;;;25.43;54.27
56604;BME280;42486;47.478;19.036;2023-05-24T11:41:38;100124.44;;;25.53;53.27
56604;BME280;42486;47.478;19.036;2023-05-24T11:44:41;100116.28;;;25.02;55.49
56604;BME280;42486;47.478;19.036;2023-05-24T11:47:44;100124.06;;;24.59;54.73
56604;BME280;42486;47.478;19.036;2023-05-24T11:50:48;100117.53;;;24.48;56.25
56604;BME280;42486;47.478;19.036;2023-05-24T11:53:51;100113.47;;;24.97;55.18
56604;BME280;42486;47.478;19.036;2023-05-24T11:56:56;100114.72;;;25.58;53.58
56604;BME280;42486;47.478;19.036;2023-05-24T11:59:59;100118.97;;;25.73;51.21
56604;BME280;42486;47.478;19.036;2023-05-24T12:03:03;100120.16;;;25.77;50.28
56604;BME280;42486;47.478;19.036;2023-05-24T12:06:11;100116.41;;;25.21;51.26
56604;BME280;42486;47.478;19.036;2023-05-24T12:09:13;100112.63;;;24.45;52.30
56604;BME280;42486;47.478;19.036;2023-05-24T12:12:17;100117.00;;;24.78;53.23
56604;BME280;42486;47.478;19.036;2023-05-24T12:15:27;100112.47;;;24.78;53.90
56604;BME280;42486;47.478;19.036;2023-05-24T12:18:34;100114.03;;;25.06;52.94
56604;BME280;42486;47.478;19.036;2023-05-24T12:21:42;100121.03;;;25.45;54.46
56604;BME280;42486;47.478;19.036;2023-05-24T12:24:47;100115.81;;;26.07;50.92
56604;BME280;42486;47.478;19.036;2023-05-24T12:27:53;100118.37;;;26.39;50.02
56604;BME280;42486;47.478;19.036;2023-05-24T12:30:57;100117.03;;;25.86;50.46
56604;BME280;42486;47.478;19.036;2023-05-24T12:34:01;100111.47;;;24.73;54.13
56604;BME280;42486;47.478;19.036;2023-05-24T12:37:06;100114.63;;;24.43;54.17
56604;BME280;42486;47.478;19.036;2023-05-24T12:40:18;100112.97;;;24.62;55.07
56604;BME280;42486;47.478;19.036;2023-05-24T12:43:24;100112.28;;;24.73;53.99
56604;BME280;42486;47.478;19.036;2023-05-24T12:46:29;100101.28;;;25.40;52.54
56604;BME280;42486;47.478;19.036;2023-05-24T12:49:31;100105.91;;;25.83;52.67
56604;BME280;42486;47.478;19.036;2023-05-24T12:52:34;100103.44;;;26.06;50.95
56604;BME280;42486;47.478;19.036;2023-05-24T12:55:38;100100.12;;;26.29;48.75
56604;BME280;42486;47.478;19.036;2023-05-24T12:58:42;100096.41;;;26.12;50.13
56604;BME280;42486;47.478;19.036;2023-05-24T13:01:44;100098.22;;;25.36;51.75
56604;BME280;42486;47.478;19.036;2023-05-24T13:04:52;100088.25;;;25.18;51.48
56604;BME280;42486;47.478;19.036;2023-05-24T13:08:02;100094.91;;;25.66;51.01
56604;BME280;42486;47.478;19.036;2023-05-24T13:11:05;100086.41;;;25.76;50.02
56604;BME280;42486;47.478;19.036;2023-05-24T13:14:08;100082.22;;;25.80;50.74
56604;BME280;42486;47.478;19.036;2023-05-24T13:17:12;100084.00;;;25.92;50.47
56604;BME280;42486;47.478;19.036;2023-05-24T13:20:17;100084.97;;;25.98;49.59
56604;BME280;42486;47.478;19.036;2023-05-24T13:23:26;100079.25;;;25.69;51.16
56604;BME280;42486;47.478;19.036;2023-05-24T13:26:29;100076.22;;;25.91;50.21
56604;BME280;42486;47.478;19.036;2023-05-24T13:29:33;100079.34;;;25.88;51.44
56604;BME280;42486;47.478;19.036;2023-05-24T13:32:49;100073.12;;;26.12;52.67
56604;BME280;42486;47.478;19.036;2023-05-24T13:35:53;100075.75;;;25.69;50.16
56604;BME280;42486;47.478;19.036;2023-05-24T13:38:58;100078.66;;;25.92;51.74
56604;BME280;42486;47.478;19.036;2023-05-24T13:42:17;100081.06;;;25.19;51.52
56604;BME280;42486;47.478;19.036;2023-05-24T13:45:19;100079.03;;;25.08;51.63
56604;BME280;42486;47.478;19.036;2023-05-24T13:48:23;100067.91;;;24.72;52.61
56604;BME280;42486;47.478;19.036;2023-05-24T13:51:26;100070.28;;;24.49;53.23
56604;BME280;42486;47.478;19.036;2023-05-24T13:54:29;100075.88;;;24.86;52.77
56604;BME280;42486;47.478;19.036;2023-05-24T13:57:31;100068.94;;;25.10;51.05
56604;BME280;42486;47.478;19.036;2023-05-24T14:00:52;100063.87;;;25.33;51.14
56604;BME280;42486;47.478;19.036;2023-05-24T14:03:54;100064.31;;;24.92;51.92
56604;BME280;42486;47.478;19.036;2023-05-24T14:06:56;100064.94;;;24.94;52.58
56604;BME280;42486;47.478;19.036;2023-05-24T14:09:58;100063.97;;;24.81;52.53
56604;BME280;42486;47.478;19.036;2023-05-24T14:13:04;100062.12;;;24.75;52.02
56604;BME280;42486;47.478;19.036;2023-05-24T14:16:11;100063.44;;;24.66;53.17
56604;BME280;42486;47.478;19.036;2023-05-24T14:19:14;100058.56;;;24.95;52.32
56604;BME280;42486;47.478;19.036;2023-05-24T14:22:18;100060.38;;;25.01;52.77
56604;BME280;42486;47.478;19.036;2023-05-24T14:25:21;100059.59;;;24.94;52.17
56604;BME280;42486;47.478;19.036;2023-05-24T14:28:24;100063.53;;;25.23;52.20
56604;BME280;42486;47.478;19.036;2023-05-24T14:31:28;100069.38;;;25.07;52.00
56604;BME280;42486;47.478;19.036;2023-05-24T14:34:31;100069.59;;;24.67;52.38
56604;BME280;42486;47.478;19.036;2023-05-24T14:37:35;100068.34;;;24.69;52.96
56604;BME280;42486;47.478;19.036;2023-05-24T14:40:39;100063.25;;;24.99;53.66
56604;BME280;42486;47.478;19.036;2023-05-24T14:43:41;100066.53;;;25.01;52.48
56604;BME280;42486;47.478;19.036;2023-05-24T14:46:45;100071.50;;;24.53;54.18
56604;BME280;42486;47.478;19.036;2023-05-24T14:49:51;100068.50;;;24.16;54.81
56604;BME280;42486;47.478;19.036;2023-05-24T14:52:53;100064.00;;;23.90;55.10
56604;BME280;42486;47.478;19.036;2023-05-24T14:55:59;100074.06;;;24.01;55.33
56604;BME280;42486;47.478;19.036;2023-05-24T14:59:05;100070.34;;;24.09;55.74
56604;BME280;42486;47.478;19.036;2023-05-24T15:02:10;100073.25;;;24.01;55.63
56604;BME280;42486;47.478;19.036;2023-05-24T15:05:18;100082.00;;;24.28;55.09
56604;BME280;42486;47.478;19.036;2023-05-24T15:08:21;100086.97;;;24.24;54.69
56604;BME280;42486;47.478;19.036;2023-05-24T15:11:24;100078.53;;;24.27;54.56
56604;BME280;42486;47.478;19.036;2023-05-24T15:14:27;100082.69;;;23.57;55.94
56604;BME280;42486;47.478;19.036;2023-05-24T15:17:31;100077.53;;;23.28;57.28
56604;BME280;42486;47.478;19.036;2023-05-24T15:20:36;100089.62;;;23.38;57.40
56604;BME280;42486;47.478;19.036;2023-05-24T15:23:39;100076.91;;;23.33;57.66
56604;BME280;42486;47.478;19.036;2023-05-24T15:26:42;100079.78;;;23.45;56.60
56604;BME280;42486;47.478;19.036;2023-05-24T15:29:46;100082.03;;;23.48;56.61
56604;BME280;42486;47.478;19.036;2023-05-24T15:32:50;100083.91;;;23.47;56.34
56604;BME280;42486;47.478;19.036;2023-05-24T15:35:54;100087.38;;;23.48;56.73
56604;BME280;42486;47.478;19.036;2023-05-24T15:38:58;100086.34;;;23.36;56.50
56604;BME280;42486;47.478;19.036;2023-05-24T15:42:02;100076.28;;;23.24;56.62
56604;BME280;42486;47.478;19.036;2023-05-24T15:45:05;100088.72;;;22.97;57.19
56604;BME280;42486;47.478;19.036;2023-05-24T15:48:10;100085.09;;;23.12;57.03
56604;BME280;42486;47.478;19.036;2023-05-24T15:51:16;100081.69;;;22.90;57.46
56604;BME280;42486;47.478;19.036;2023-05-24T15:54:21;100088.09;;;22.95;58.34
56604;BME280;42486;47.478;19.036;2023-05-24T15:57:25;100091.25;;;23.25;58.76
56604;BME280;42486;47.478;19.036;2023-05-24T16:00:31;100097.41;;;23.19;57.46
56604;BME280;42486;47.478;19.036;2023-05-24T16:03:35;100089.16;;;23.07;57.80
56604;BME280;42486;47.478;19.036;2023-05-24T16:06:40;100087.09;;;22.96;58.62
56604;BME280;42486;47.478;19.036;2023-05-24T16:09:45;100094.81;;;22.91;58.15
56604;BME280;42486;47.478;19.036;2023-05-24T16:12:49;100099.91;;;22.79;58.08